Parc national de Yoho, Colombie-Britannique

Conditions des dernières 24 heures

Date / Heure
(HAR)
Conditions Temp
(°C)
Humidité
(%)
Point de rosée
(°C)
Vent
(km/h)
Pression
(kPa)
Visibilité
(km)
03 août 2015
2:00 N.D. 10 73 6 calme 101,3 N.D.
1:00 N.D. 11 70 6 NE 2 101,2 N.D.
0:00 N.D. 12 66 6 E 5 101,2 N.D.
02 août 2015
23:00 N.D. 14 62 7 NNE 4 101,3 N.D.
22:00 N.D. 16 60 8 O 2 101,3 N.D.
21:00 N.D. 18 50 8 calme 101,3 N.D.
20:00 N.D. 20 42 7 OSO 8 101,3 N.D.
19:00 N.D. 23 33 6 O 16 rafale 29 101,3 N.D.
18:00 N.D. 25 22 2 O 22 rafale 32 101,3 N.D.
17:00 N.D. 26 21 2 OSO 17 101,3 N.D.
16:00 N.D. 27   19 1 OSO 24 101,4 N.D.
15:00 N.D. 23 27 4 O 13 101,5 N.D.
14:00 N.D. 25 25 3 OSO 17 rafale 29 101,4 N.D.
13:00 N.D. 25 28 6 OSO 18 101,4 N.D.
12:00 N.D. 24 33 7 OSO 16 101,5 N.D.
11:00 N.D. 20 45 8 NE 7 101,5 N.D.
10:00 N.D. 17 63 10 NE 13 101,6 N.D.
9:00 N.D. 14 73 9 ENE 13 101,6 N.D.
8:00 N.D. 9 89 7 calme 101,7 N.D.
7:00 N.D. 7   90 5 E 4 101,7 N.D.
6:00 N.D. 7   86 4 E 2 101,7 N.D.
5:00 N.D. 7   85 4 E 2 101,6 N.D.
4:00 N.D. 8 84 6 E 2 101,6 N.D.
3:00 N.D. 8 74 4 ESE 2 101,6 N.D.
2:00 N.D. 9 71 4 NE 5 101,5 N.D.
N.D. non disponible
↑ température la plus haute
↓ température la plus basse

Si vous désirez plus de données historiques sur les conditions météo, s.v.p. visitez Données climatologiques en ligne.

Ce que nous faisons

Date de modification :